Time;durP1;ratioP1;P1;durP2;ratioP2;P2;SDS_P1;SDS_P2;PMS_P1;PMS_P2;Temp;Humidity;BMP_temperature;BMP_pressure;BME280_temperature;BME280_humidity;BME280_pressure;Samples;Min_cycle;Max_cycle;Signal;HPM_P1;HPM_P2
2023/08/05 00:02:15;;;;;;;43.45;7.90;;;;;;;;;;4996690;28;20125;-52
2023/08/05 00:04:49;;;;;;;40.35;7.82;;;;;;;;;;4994521;28;20054;-52
2023/08/05 00:07:16;;;;;;;40.92;7.57;;;;;;;;;;4998644;28;20049;-55
2023/08/05 00:09:49;;;;;;;39.92;7.85;;;;;;;;;;4995748;28;20324;-55
2023/08/05 00:12:17;;;;;;;35.15;7.45;;;;;;;;;;4993258;28;20108;-53
2023/08/05 00:14:44;;;;;;;42.75;8.65;;;;;;;;;;4992091;28;20104;-54
2023/08/05 00:17:18;;;;;;;33.58;7.03;;;;;;;;;;4994295;28;20466;-58
2023/08/05 00:19:45;;;;;;;32.53;7.70;;;;;;;;;;4994829;28;20124;-58
2023/08/05 00:22:19;;;;;;;38.40;7.78;;;;;;;;;;4997214;28;20708;-57
2023/08/05 00:24:47;;;;;;;34.90;7.65;;;;;;;;;;4999653;28;20050;-58
2023/08/05 00:27:14;;;;;;;54.45;8.70;;;;;;;;;;4995723;28;20054;-55
2023/08/05 00:29:47;;;;;;;29.05;7.32;;;;;;;;;;4996813;28;20058;-51
2023/08/05 00:32:15;;;;;;;24.90;6.55;;;;;;;;;;5000739;28;20056;-56
2023/08/05 00:34:42;;;;;;;42.20;8.05;;;;;;;;;;4996573;28;20175;-53
2023/08/05 00:37:15;;;;;;;41.75;7.45;;;;;;;;;;4996002;28;20116;-55
2023/08/05 00:39:49;;;;;;;34.88;7.40;;;;;;;;;;4999067;28;20570;-55
2023/08/05 00:42:23;;;;;;;35.03;8.00;;;;;;;;;;4995882;28;20176;-57
2023/08/05 00:44:50;;;;;;;36.63;8.13;;;;;;;;;;4984985;28;20054;-59
2023/08/05 00:47:18;;;;;;;35.47;7.97;;;;;;;;;;4994530;28;20054;-58
2023/08/05 00:49:53;;;;;;;38.63;7.90;;;;;;;;;;4989280;28;20050;-59
2023/08/05 00:52:22;;;;;;;47.33;8.68;;;;;;;;;;4992827;28;20057;-58
2023/08/05 00:54:56;;;;;;;32.80;7.75;;;;;;;;;;4998916;28;20512;-56
2023/08/05 00:57:25;;;;;;;37.97;7.85;;;;;;;;;;4993168;28;20058;-54
2023/08/05 00:59:52;;;;;;;31.35;7.90;;;;;;;;;;4991858;28;20073;-52
2023/08/05 01:02:25;;;;;;;45.10;9.18;;;;;;;;;;4992894;28;20061;-53
2023/08/05 01:04:53;;;;;;;29.95;9.18;;;;;;;;;;4995032;28;20068;-55
2023/08/05 01:07:26;;;;;;;42.65;8.15;;;;;;;;;;4997718;28;20783;-53
2023/08/05 01:09:54;;;;;;;44.78;8.65;;;;;;;;;;4993306;28;20532;-52
2023/08/05 01:12:21;;;;;;;31.17;8.73;;;;;;;;;;4992951;28;20077;-53
2023/08/05 01:14:54;;;;;;;39.58;8.40;;;;;;;;;;4984528;28;20108;-53
2023/08/05 01:17:21;;;;;;;33.72;8.60;;;;;;;;;;4993740;28;20129;-54
2023/08/05 01:19:56;;;;;;;37.63;7.95;;;;;;;;;;4993701;28;20057;-53
2023/08/05 01:22:27;;;;;;;35.85;8.27;;;;;;;;;;4995020;28;20550;-55
2023/08/05 01:24:57;;;;;;;41.22;9.25;;;;;;;;;;4999337;28;20144;-67
2023/08/05 01:27:31;;;;;;;46.47;9.00;;;;;;;;;;4988653;28;20057;-53
2023/08/05 01:29:58;;;;;;;40.67;8.80;;;;;;;;;;4993652;28;20103;-52
2023/08/05 01:32:35;;;;;;;32.30;8.02;;;;;;;;;;4995366;28;20634;-53
2023/08/05 01:35:02;;;;;;;37.33;8.48;;;;;;;;;;4998177;28;20054;-51
2023/08/05 01:37:29;;;;;;;48.03;8.90;;;;;;;;;;4993857;28;20140;-50
2023/08/05 01:40:17;;;;;;;34.33;8.52;;;;;;;;;;4996728;28;20045;-51
2023/08/05 01:42:51;;;;;;;38.87;8.33;;;;;;;;;;4996473;28;20053;-51
2023/08/05 01:45:25;;;;;;;34.92;8.38;;;;;;;;;;4993313;28;20372;-52
2023/08/05 01:47:59;;;;;;;44.05;8.88;;;;;;;;;;4995394;28;20074;-48
2023/08/05 01:50:35;;;;;;;37.70;8.50;;;;;;;;;;4996372;28;20058;-53
2023/08/05 01:53:08;;;;;;;39.53;8.50;;;;;;;;;;5000404;28;20267;-52
2023/08/05 01:55:42;;;;;;;38.25;8.15;;;;;;;;;;4994195;28;20515;-68
2023/08/05 01:58:09;;;;;;;30.13;7.32;;;;;;;;;;5003886;28;20046;-68
2023/08/05 02:00:36;;;;;;;37.80;8.90;;;;;;;;;;4995621;28;20050;-68
2023/08/05 02:03:10;;;;;;;30.42;7.90;;;;;;;;;;4996266;28;20076;-67
2023/08/05 02:05:38;;;;;;;28.65;6.88;;;;;;;;;;4998271;28;20186;-68
2023/08/05 02:08:05;;;;;;;40.65;8.32;;;;;;;;;;4999647;28;20438;-68
2023/08/05 02:10:40;;;;;;;37.30;7.47;;;;;;;;;;5000846;28;20522;-71
2023/08/05 02:13:07;;;;;;;39.40;7.68;;;;;;;;;;4996177;28;20383;-68
2023/08/05 02:15:41;;;;;;;37.35;8.20;;;;;;;;;;5001480;28;20482;-70
2023/08/05 02:18:09;;;;;;;43.55;8.70;;;;;;;;;;4994433;28;20062;-70
2023/08/05 02:20:36;;;;;;;41.03;7.97;;;;;;;;;;4995882;28;20141;-69
2023/08/05 02:23:09;;;;;;;35.28;8.43;;;;;;;;;;4996888;28;20058;-52
2023/08/05 02:25:36;;;;;;;38.58;8.82;;;;;;;;;;5000611;28;20068;-52
2023/08/05 02:28:10;;;;;;;43.00;8.90;;;;;;;;;;5000383;28;20468;-51
2023/08/05 02:30:38;;;;;;;32.97;8.38;;;;;;;;;;4993584;28;20522;-54
2023/08/05 02:33:05;;;;;;;34.97;8.13;;;;;;;;;;4996959;28;20166;-50
2023/08/05 02:35:38;;;;;;;35.78;9.20;;;;;;;;;;4998236;28;20523;-53
2023/08/05 02:38:06;;;;;;;42.20;8.32;;;;;;;;;;4997489;28;20049;-55
2023/08/05 02:40:46;;;;;;;34.30;8.40;;;;;;;;;;4998439;28;20550;-57
2023/08/05 02:43:13;;;;;;;34.40;8.48;;;;;;;;;;5000348;28;20161;-57
2023/08/05 02:45:54;;;;;;;29.13;7.65;;;;;;;;;;5002498;28;20131;-57
2023/08/05 02:48:22;;;;;;;39.88;8.98;;;;;;;;;;4999121;28;20138;-53
2023/08/05 02:50:57;;;;;;;27.35;7.80;;;;;;;;;;4996757;28;20053;-51
2023/08/05 02:53:24;;;;;;;31.85;8.18;;;;;;;;;;4998900;28;20583;-48
2023/08/05 02:55:51;;;;;;;30.60;7.15;;;;;;;;;;4997648;28;20627;-47
2023/08/05 02:58:26;;;;;;;35.33;7.97;;;;;;;;;;4997026;28;20057;-47
2023/08/05 03:00:56;;;;;;;31.08;7.07;;;;;;;;;;4995789;28;20104;-47
2023/08/05 03:03:23;;;;;;;29.33;7.40;;;;;;;;;;4994977;28;20112;-50
2023/08/05 03:05:58;;;;;;;37.83;8.55;;;;;;;;;;4993639;28;20061;-55
2023/08/05 03:08:27;;;;;;;28.67;7.43;;;;;;;;;;4981994;28;20458;-61
2023/08/05 03:11:02;;;;;;;33.72;7.85;;;;;;;;;;4994403;28;20498;-62
2023/08/05 03:13:30;;;;;;;33.53;8.05;;;;;;;;;;4995859;28;20058;-61
2023/08/05 03:15:57;;;;;;;29.98;7.35;;;;;;;;;;4999077;28;20053;-61
2023/08/05 03:18:31;;;;;;;27.35;7.63;;;;;;;;;;5001416;28;20061;-70
2023/08/05 03:20:59;;;;;;;35.78;7.30;;;;;;;;;;4995582;28;20491;-51
2023/08/05 03:23:26;;;;;;;31.98;8.00;;;;;;;;;;4992978;28;20061;-52
2023/08/05 03:25:59;;;;;;;35.92;7.07;;;;;;;;;;4990791;28;20120;-47
2023/08/05 03:28:26;;;;;;;27.13;6.85;;;;;;;;;;4998199;28;20118;-50
2023/08/05 03:31:01;;;;;;;30.42;7.25;;;;;;;;;;5000268;28;20073;-52
2023/08/05 03:33:29;;;;;;;21.40;7.22;;;;;;;;;;4996293;28;20057;-52
2023/08/05 03:35:56;;;;;;;;;;;;;;;;;;4999422;28;20049;-68
2023/08/05 03:38:30;;;;;;;27.13;6.10;;;;;;;;;;4993339;28;20044;-68
2023/08/05 03:41:04;;;;;;;22.77;6.25;;;;;;;;;;5016132;28;20547;-68
2023/08/05 03:43:38;;;;;;;29.73;7.30;;;;;;;;;;5014857;28;20501;-68
2023/08/05 03:46:06;;;;;;;29.58;7.00;;;;;;;;;;5012487;28;23267;-55
2023/08/05 03:48:33;;;;;;;25.38;5.95;;;;;;;;;;5018774;28;20057;-49
2023/08/05 03:51:07;;;;;;;29.75;7.22;;;;;;;;;;5018556;28;20053;-48
2023/08/05 03:53:35;;;;;;;33.70;7.05;;;;;;;;;;5017993;28;20108;-51
2023/08/05 03:56:08;;;;;;;33.00;6.85;;;;;;;;;;5018432;28;20061;-50
2023/08/05 03:58:43;;;;;;;28.00;6.35;;;;;;;;;;5019671;28;20478;-52
2023/08/05 04:01:12;;;;;;;30.73;6.00;;;;;;;;;;5015033;28;20060;-52
2023/08/05 04:03:47;;;;;;;37.40;7.60;;;;;;;;;;5019615;28;20112;-58
2023/08/05 04:06:14;;;;;;;20.17;7.18;;;;;;;;;;5016527;28;20045;-58
2023/08/05 04:08:41;;;;;;;27.52;6.70;;;;;;;;;;5006201;28;20344;-59
2023/08/05 04:11:15;;;;;;;25.45;6.85;;;;;;;;;;5017390;28;20057;-58
2023/08/05 04:13:44;;;;;;;;;;;;;;;;;;5020294;28;20093;-68
2023/08/05 04:16:19;;;;;;;25.48;6.82;;;;;;;;;;5012436;28;19933;-59
2023/08/05 04:18:48;;;;;;;26.33;6.55;;;;;;;;;;5020719;28;20045;-57
2023/08/05 04:21:16;;;;;;;24.17;5.90;;;;;;;;;;5016007;28;20112;-58
2023/08/05 04:23:50;;;;;;;27.52;6.20;;;;;;;;;;5012468;28;20060;-58
2023/08/05 04:26:18;;;;;;;24.00;6.30;;;;;;;;;;5013042;28;20104;-57
2023/08/05 04:28:51;;;;;;;29.02;6.75;;;;;;;;;;5015261;28;20061;-58
2023/08/05 04:31:19;;;;;;;24.83;6.50;;;;;;;;;;5016191;28;20057;-65
2023/08/05 04:33:48;;;;;;;29.50;6.85;;;;;;;;;;5014768;28;20050;-49
2023/08/05 04:36:21;;;;;;;30.42;6.75;;;;;;;;;;5015385;28;20093;-51
2023/08/05 04:38:49;;;;;;;30.33;7.25;;;;;;;;;;5012982;28;20541;-54
2023/08/05 04:41:16;;;;;;;27.48;6.72;;;;;;;;;;5002210;28;20122;-54
2023/08/05 04:43:59;;;;;;;26.85;5.82;;;;;;;;;;4995319;28;20125;-59
2023/08/05 04:46:27;;;;;;;34.65;6.85;;;;;;;;;;4997400;28;20222;-51
2023/08/05 04:49:01;;;;;;;31.73;6.40;;;;;;;;;;4993622;28;20054;-54
2023/08/05 04:51:28;;;;;;;18.45;5.30;;;;;;;;;;4999929;28;20057;-54
2023/08/05 04:53:55;;;;;;;34.65;6.82;;;;;;;;;;4999075;28;20054;-54
2023/08/05 04:56:28;;;;;;;18.42;5.82;;;;;;;;;;4996189;28;20057;-54
2023/08/05 04:58:55;;;;;;;32.10;7.03;;;;;;;;;;4995626;28;20097;-51
2023/08/05 05:01:29;;;;;;;19.70;5.88;;;;;;;;;;4994923;28;20057;-49
2023/08/05 05:03:57;;;;;;;24.38;6.82;;;;;;;;;;4999170;28;20754;-51
2023/08/05 05:06:24;;;;;;;22.85;6.68;;;;;;;;;;4996373;28;20113;-49
2023/08/05 05:08:57;;;;;;;29.75;6.50;;;;;;;;;;4992955;28;20066;-53
2023/08/05 05:11:26;;;;;;;27.38;6.25;;;;;;;;;;4997258;28;20058;-57
2023/08/05 05:14:01;;;;;;;27.00;6.65;;;;;;;;;;4995073;28;20054;-70
2023/08/05 05:16:28;;;;;;;;;;;;;;;;;;4979320;28;20058;-69
2023/08/05 05:18:55;;;;;;;29.67;6.53;;;;;;;;;;4996128;28;20154;-70
2023/08/05 05:21:30;;;;;;;25.85;6.20;;;;;;;;;;4997873;28;20062;-69
2023/08/05 05:23:57;;;;;;;21.60;6.75;;;;;;;;;;4995323;28;20191;-70
2023/08/05 05:26:31;;;;;;;25.60;6.78;;;;;;;;;;4997320;28;20050;-69
2023/08/05 05:28:58;;;;;;;25.60;6.30;;;;;;;;;;4992717;28;20058;-69
2023/08/05 05:31:26;;;;;;;24.83;6.10;;;;;;;;;;5000954;28;20050;-69
2023/08/05 05:34:00;;;;;;;25.58;5.60;;;;;;;;;;5002511;28;20046;-69
2023/08/05 05:36:27;;;;;;;23.55;5.38;;;;;;;;;;5001248;28;20065;-69
2023/08/05 05:39:01;;;;;;;18.30;5.60;;;;;;;;;;4996109;28;20054;-67
2023/08/05 05:41:35;;;;;;;18.50;5.50;;;;;;;;;;4998482;28;20053;-69
2023/08/05 05:44:09;;;;;;;18.23;5.22;;;;;;;;;;4999488;28;20065;-57
2023/08/05 05:46:37;;;;;;;24.08;5.95;;;;;;;;;;5000358;28;20470;-57
2023/08/05 05:49:04;;;;;;;18.58;5.57;;;;;;;;;;4997116;28;21464;-58
2023/08/05 05:51:37;;;;;;;28.65;6.47;;;;;;;;;;5003529;28;20589;-57
2023/08/05 05:54:05;;;;;;;27.42;6.05;;;;;;;;;;5001133;28;20054;-57
2023/08/05 05:56:41;;;;;;;19.20;5.40;;;;;;;;;;5001168;28;20050;-57
2023/08/05 05:59:09;;;;;;;19.60;4.57;;;;;;;;;;4992844;28;20053;-52
2023/08/05 06:01:36;;;;;;;21.23;5.50;;;;;;;;;;4999822;28;20057;-53
2023/08/05 06:04:09;;;;;;;20.00;5.63;;;;;;;;;;4998385;28;20049;-55
2023/08/05 06:06:37;;;;;;;;;;;;;;;;;;4995295;28;20056;-53
2023/08/05 06:09:11;;;;;;;18.30;4.70;;;;;;;;;;4995476;28;19929;-53
2023/08/05 06:11:38;;;;;;;11.15;4.45;;;;;;;;;;5003186;28;20541;-50
2023/08/05 06:14:05;;;;;;;16.60;4.68;;;;;;;;;;4996431;28;20381;-52
2023/08/05 06:16:40;;;;;;;19.77;5.03;;;;;;;;;;4993602;28;20053;-51
2023/08/05 06:19:10;;;;;;;14.18;4.55;;;;;;;;;;4995931;28;20049;-50
2023/08/05 06:21:37;;;;;;;10.57;4.40;;;;;;;;;;4993831;28;20062;-48
2023/08/05 06:24:11;;;;;;;10.07;3.95;;;;;;;;;;4991481;28;20062;-55
2023/08/05 06:26:39;;;;;;;17.33;4.60;;;;;;;;;;4996754;28;20062;-68
2023/08/05 06:29:16;;;;;;;12.88;4.30;;;;;;;;;;4994111;28;20058;-67
2023/08/05 06:31:44;;;;;;;15.32;4.70;;;;;;;;;;4996365;28;20499;-68
2023/08/05 06:34:11;;;;;;;13.13;4.50;;;;;;;;;;4999967;28;20045;-67
2023/08/05 06:36:44;;;;;;;14.60;4.63;;;;;;;;;;4991720;28;20104;-69
2023/08/05 06:39:11;;;;;;;13.15;4.85;;;;;;;;;;4995184;28;20054;-67
2023/08/05 06:41:53;;;;;;;13.77;4.85;;;;;;;;;;4999004;28;20254;-68
2023/08/05 06:44:20;;;;;;;13.63;4.20;;;;;;;;;;4999702;28;20148;-68
2023/08/05 06:46:55;;;;;;;14.43;4.30;;;;;;;;;;4999934;28;20061;-68
2023/08/05 06:49:22;;;;;;;16.85;4.35;;;;;;;;;;4998491;28;20081;-68
2023/08/05 06:51:50;;;;;;;10.60;4.20;;;;;;;;;;4999029;28;20464;-67
2023/08/05 06:54:25;;;;;;;12.73;4.28;;;;;;;;;;5001558;28;20441;-70
2023/08/05 06:56:52;;;;;;;13.80;4.10;;;;;;;;;;4995184;28;20124;-69
2023/08/05 06:59:28;;;;;;;15.70;4.40;;;;;;;;;;4996731;28;20111;-66
2023/08/05 07:01:55;;;;;;;13.43;4.18;;;;;;;;;;4996805;28;20058;-68
2023/08/05 07:04:22;;;;;;;;;;;;;;;;;;4993983;28;20057;-58
2023/08/05 07:06:56;;;;;;;13.18;3.90;;;;;;;;;;4994748;28;19933;-57
2023/08/05 07:09:24;;;;;;;8.27;3.60;;;;;;;;;;4996996;28;20181;-69
2023/08/05 07:11:58;;;;;;;12.35;3.47;;;;;;;;;;4998775;28;20143;-69
2023/08/05 07:14:25;;;;;;;12.52;3.80;;;;;;;;;;4996243;28;20049;-69
2023/08/05 07:16:57;;;;;;;9.82;3.30;;;;;;;;;;4996825;28;20054;-69
2023/08/05 07:19:30;;;;;;;12.05;4.07;;;;;;;;;;4974429;28;20438;-69
2023/08/05 07:21:58;;;;;;;14.68;3.53;;;;;;;;;;4995641;28;20061;-68
2023/08/05 07:24:31;;;;;;;9.43;3.38;;;;;;;;;;4981169;28;20107;-51
2023/08/05 07:26:59;;;;;;;10.77;3.35;;;;;;;;;;5000714;28;20069;-50
2023/08/05 07:29:26;;;;;;;12.10;3.42;;;;;;;;;;4995445;28;20054;-54
2023/08/05 07:31:59;;;;;;;20.27;3.40;;;;;;;;;;4990711;28;20053;-52
2023/08/05 07:34:31;;;;;;;9.32;3.08;;;;;;;;;;4982195;28;20121;-58
2023/08/05 07:37:05;;;;;;;9.73;3.55;;;;;;;;;;4985244;28;20057;-53
2023/08/05 07:39:36;;;;;;;12.00;3.00;;;;;;;;;;4999991;28;20432;-59
2023/08/05 07:42:10;;;;;;;8.38;3.22;;;;;;;;;;5003580;28;20064;-58
2023/08/05 07:44:46;;;;;;;10.75;3.45;;;;;;;;;;4998837;28;20051;-58
2023/08/05 07:47:13;;;;;;;13.35;3.90;;;;;;;;;;4998591;28;20057;-56
2023/08/05 07:49:41;;;;;;;6.40;3.20;;;;;;;;;;5003200;28;20049;-57
2023/08/05 07:52:14;;;;;;;7.85;3.10;;;;;;;;;;4996199;28;20123;-68
2023/08/05 07:54:44;;;;;;;15.35;3.85;;;;;;;;;;5000400;28;20200;-68
2023/08/05 07:57:12;;;;;;;16.58;3.75;;;;;;;;;;4998951;28;20116;-69
2023/08/05 07:59:45;;;;;;;11.77;3.90;;;;;;;;;;5006585;28;20073;-68
2023/08/05 08:02:12;;;;;;;16.38;4.10;;;;;;;;;;4995366;28;20050;-56
2023/08/05 08:04:51;;;;;;;12.13;3.75;;;;;;;;;;5000217;28;20132;-67
2023/08/05 08:07:19;;;;;;;12.70;4.18;;;;;;;;;;4998302;28;20066;-68
2023/08/05 08:09:46;;;;;;;16.73;4.43;;;;;;;;;;4999067;28;20073;-68
2023/08/05 08:12:19;;;;;;;18.08;4.28;;;;;;;;;;4998185;28;20062;-68
2023/08/05 08:14:46;;;;;;;17.75;4.22;;;;;;;;;;4999924;28;20112;-68
2023/08/05 08:17:21;;;;;;;20.08;4.75;;;;;;;;;;4998498;28;20825;-68
2023/08/05 08:19:49;;;;;;;19.58;4.00;;;;;;;;;;4995444;28;20613;-58
2023/08/05 08:22:17;;;;;;;18.20;4.28;;;;;;;;;;4995438;28;20054;-59
2023/08/05 08:25:12;;;;;;;20.67;4.75;;;;;;;;;;4997752;28;20567;-58
2023/08/05 08:27:46;;;;;;;20.10;5.10;;;;;;;;;;4998981;28;20061;-58
2023/08/05 08:30:20;;;;;;;21.15;5.30;;;;;;;;;;4993497;28;20144;-58
2023/08/05 08:32:48;;;;;;;14.10;4.60;;;;;;;;;;4998169;28;20058;-54
2023/08/05 08:35:15;;;;;;;25.83;6.18;;;;;;;;;;4995325;28;20066;-52
2023/08/05 08:37:50;;;;;;;25.70;5.47;;;;;;;;;;4997196;28;20045;-55
2023/08/05 08:40:17;;;;;;;19.77;4.68;;;;;;;;;;4992758;28;20747;-56
2023/08/05 08:42:58;;;;;;;23.27;5.53;;;;;;;;;;4991963;28;20641;-57
2023/08/05 08:45:25;;;;;;;24.40;6.05;;;;;;;;;;4999821;28;20049;-55
2023/08/05 08:48:00;;;;;;;27.90;5.40;;;;;;;;;;4986655;28;20776;-58
2023/08/05 08:50:28;;;;;;;31.00;5.10;;;;;;;;;;4994961;28;20524;-60
2023/08/05 08:52:55;;;;;;;;;;;;;;;;;;4996421;28;20526;-59
2023/08/05 08:55:30;;;;;;;23.45;4.70;;;;;;;;;;4995132;28;19922;-58
2023/08/05 08:57:57;;;;;;;26.45;5.03;;;;;;;;;;4995235;28;20053;-51
2023/08/05 09:00:32;;;;;;;30.08;5.68;;;;;;;;;;4993002;28;20049;-54
2023/08/05 09:03:03;;;;;;;25.60;4.70;;;;;;;;;;4995261;28;20053;-59
2023/08/05 09:05:36;;;;;;;25.42;5.35;;;;;;;;;;4995608;28;20136;-60
2023/08/05 09:08:10;;;;;;;21.60;4.55;;;;;;;;;;4998055;28;20105;-59
2023/08/05 09:10:45;;;;;;;23.75;4.60;;;;;;;;;;4992056;28;20539;-59
2023/08/05 09:13:16;;;;;;;17.88;5.13;;;;;;;;;;4984921;28;20112;-59
2023/08/05 09:15:44;;;;;;;17.88;4.55;;;;;;;;;;4995221;28;20054;-58
2023/08/05 09:18:21;;;;;;;25.38;5.50;;;;;;;;;;4998150;28;20066;-67
2023/08/05 09:20:50;;;;;;;17.70;3.97;;;;;;;;;;5000130;28;20066;-66
2023/08/05 09:23:23;;;;;;;17.98;4.18;;;;;;;;;;5005583;28;20572;-67
2023/08/05 09:25:51;;;;;;;18.38;4.05;;;;;;;;;;4998895;28;20057;-66
2023/08/05 09:28:29;;;;;;;18.10;3.45;;;;;;;;;;4993978;28;20113;-53
2023/08/05 09:31:18;;;;;;;19.52;4.20;;;;;;;;;;4992975;28;20507;-59
2023/08/05 09:33:45;;;;;;;21.02;4.63;;;;;;;;;;4995107;28;20086;-56
2023/08/05 09:36:24;;;;;;;25.23;5.00;;;;;;;;;;4980350;28;20062;-57
2023/08/05 09:39:10;;;;;;;20.67;4.85;;;;;;;;;;4989207;28;20054;-56
2023/08/05 09:41:56;;;;;;;21.60;4.43;;;;;;;;;;4995543;28;20139;-58
2023/08/05 09:44:30;;;;;;;23.77;3.97;;;;;;;;;;4989086;28;20615;-66
2023/08/05 09:47:07;;;;;;;24.38;4.57;;;;;;;;;;4985464;28;20057;-66
2023/08/05 09:49:42;;;;;;;17.50;4.78;;;;;;;;;;4964817;28;20589;-67
2023/08/05 09:52:36;;;;;;;20.30;4.78;;;;;;;;;;4981870;28;20689;-67
2023/08/05 09:55:29;;;;;;;19.25;4.68;;;;;;;;;;4976907;28;20092;-66
2023/08/05 09:58:25;;;;;;;23.77;4.65;;;;;;;;;;4979727;28;20045;-66
2023/08/05 10:01:12;;;;;;;13.75;4.07;;;;;;;;;;4984234;28;20496;-67
2023/08/05 10:04:06;;;;;;;19.45;4.75;;;;;;;;;;4960338;28;20054;-66
2023/08/05 10:06:53;;;;;;;17.13;3.93;;;;;;;;;;4972331;28;20065;-66
2023/08/05 10:09:48;;;;;;;22.25;4.82;;;;;;;;;;4981899;28;20176;-64
2023/08/05 10:12:38;;;;;;;19.25;4.30;;;;;;;;;;4969238;28;20210;-66
2023/08/05 10:15:33;;;;;;;20.92;5.22;;;;;;;;;;4973480;28;20054;-57
2023/08/05 10:18:21;;;;;;;19.00;4.38;;;;;;;;;;4971473;28;20088;-67
2023/08/05 10:21:34;;;;;;;19.13;4.05;;;;;;;;;;4978095;28;20046;-66
2023/08/05 10:24:48;;;;;;;13.43;3.60;;;;;;;;;;4980591;28;20754;-66
2023/08/05 10:27:36;;;;;;;17.95;3.75;;;;;;;;;;4979559;28;20096;-66
2023/08/05 10:30:07;;;;;;;24.30;4.35;;;;;;;;;;4985597;28;20064;-66
2023/08/05 10:32:51;;;;;;;12.73;3.47;;;;;;;;;;4974429;28;21217;-48
2023/08/05 10:35:31;;;;;;;15.20;3.70;;;;;;;;;;4974919;28;20057;-51
2023/08/05 10:38:12;;;;;;;17.52;4.00;;;;;;;;;;4972108;28;20045;-55
2023/08/05 10:41:02;;;;;;;13.05;3.72;;;;;;;;;;4968702;28;20147;-54
2023/08/05 10:43:43;;;;;;;15.57;3.47;;;;;;;;;;4985169;28;20054;-52
2023/08/05 10:46:12;;;;;;;14.90;3.65;;;;;;;;;;4974095;28;20477;-54
2023/08/05 10:48:48;;;;;;;13.27;3.10;;;;;;;;;;4981611;28;20061;-52
2023/08/05 10:51:17;;;;;;;14.63;3.38;;;;;;;;;;4980477;28;20065;-66
2023/08/05 10:53:52;;;;;;;15.38;3.42;;;;;;;;;;4980056;28;20104;-58
2023/08/05 10:56:19;;;;;;;15.55;3.58;;;;;;;;;;4974583;28;20096;-57
2023/08/05 10:59:14;;;;;;;14.05;3.20;;;;;;;;;;4984904;28;20056;-53
2023/08/05 11:02:02;;;;;;;13.95;2.80;;;;;;;;;;4985729;28;20466;-56
2023/08/05 11:05:21;;;;;;;18.55;3.45;;;;;;;;;;4995558;28;20541;-55
2023/08/05 11:08:09;;;;;;;10.80;2.80;;;;;;;;;;4997493;28;20583;-67
2023/08/05 11:11:06;;;;;;;12.55;3.00;;;;;;;;;;4998698;28;20724;-67
2023/08/05 11:13:54;;;;;;;11.02;2.83;;;;;;;;;;4998707;28;20209;-68
2023/08/05 11:16:48;;;;;;;7.38;2.25;;;;;;;;;;5034380;28;20060;-68
2023/08/05 11:19:51;;;;;;;14.68;3.20;;;;;;;;;;5035791;28;20053;-67
2023/08/05 11:22:46;;;;;;;9.70;2.80;;;;;;;;;;5032002;28;20131;-68
2023/08/05 11:25:34;;;;;;;9.95;2.90;;;;;;;;;;5035704;28;20552;-67
2023/08/05 11:28:28;;;;;;;9.30;2.42;;;;;;;;;;5035345;28;20058;-68
2023/08/05 11:31:22;;;;;;;6.90;2.55;;;;;;;;;;5038668;28;20162;-49
2023/08/05 11:34:24;;;;;;;11.95;2.70;;;;;;;;;;5029734;28;20115;-53
2023/08/05 11:37:10;;;;;;;12.18;2.53;;;;;;;;;;5033421;28;20297;-49
2023/08/05 11:40:10;;;;;;;8.68;2.63;;;;;;;;;;5037873;28;20107;-52
2023/08/05 11:43:07;;;;;;;10.25;2.60;;;;;;;;;;4995284;28;20057;-52
2023/08/05 11:46:01;;;;;;;13.32;3.10;;;;;;;;;;4997661;28;20136;-59
2023/08/05 11:48:48;;;;;;;11.60;2.85;;;;;;;;;;4997458;28;20104;-60
2023/08/05 11:51:45;;;;;;;15.43;3.17;;;;;;;;;;4991765;28;20885;-61
2023/08/05 11:54:32;;;;;;;11.88;2.72;;;;;;;;;;4987286;28;20164;-61
2023/08/05 11:57:27;;;;;;;12.38;3.00;;;;;;;;;;4987042;28;20054;-63
2023/08/05 12:00:14;;;;;;;9.55;2.72;;;;;;;;;;4987153;28;20589;-67
2023/08/05 12:03:08;;;;;;;15.45;3.13;;;;;;;;;;4991982;28;20073;-67
2023/08/05 12:06:00;;;;;;;9.77;2.45;;;;;;;;;;4995126;28;20151;-65
2023/08/05 12:08:59;;;;;;;11.02;2.90;;;;;;;;;;4995145;28;20779;-64
2023/08/05 12:11:46;;;;;;;12.38;3.47;;;;;;;;;;4997082;28;20050;-65
2023/08/05 12:14:41;;;;;;;11.25;2.70;;;;;;;;;;4990680;28;20069;-55
2023/08/05 12:17:28;;;;;;;15.00;3.25;;;;;;;;;;4991035;28;20582;-56
2023/08/05 12:20:23;;;;;;;9.82;2.80;;;;;;;;;;4991932;28;20053;-54
2023/08/05 12:23:16;;;;;;;10.43;2.78;;;;;;;;;;4992249;28;20083;-52
2023/08/05 12:26:04;;;;;;;13.57;3.03;;;;;;;;;;4997536;28;20084;-52
2023/08/05 12:29:18;;;;;;;14.60;3.00;;;;;;;;;;4996113;28;20120;-56
2023/08/05 12:32:06;;;;;;;15.02;3.20;;;;;;;;;;4996119;28;20046;-58
2023/08/05 12:35:07;;;;;;;10.93;2.92;;;;;;;;;;4989192;28;20047;-57
2023/08/05 12:37:54;;;;;;;13.68;3.25;;;;;;;;;;4997846;28;20519;-56
2023/08/05 12:40:35;;;;;;;17.10;3.17;;;;;;;;;;4990647;28;20088;-57
2023/08/05 12:43:09;;;;;;;12.10;2.80;;;;;;;;;;4996591;28;20133;-51
2023/08/05 12:45:44;;;;;;;12.35;3.08;;;;;;;;;;4993292;28;20561;-50
2023/08/05 12:48:11;;;;;;;19.50;3.78;;;;;;;;;;4992184;28;20050;-53
2023/08/05 12:50:38;;;;;;;13.52;2.80;;;;;;;;;;4989588;28;20149;-53
2023/08/05 12:53:11;;;;;;;13.90;3.35;;;;;;;;;;4995022;28;20500;-52
2023/08/05 12:55:58;;;;;;;12.20;2.58;;;;;;;;;;4994284;28;20716;-53
2023/08/05 12:58:53;;;;;;;16.00;3.33;;;;;;;;;;4990592;28;20058;-53
2023/08/05 13:01:40;;;;;;;12.50;3.20;;;;;;;;;;4988270;28;20129;-65
2023/08/05 13:04:34;;;;;;;14.55;2.65;;;;;;;;;;4990406;28;20065;-65
2023/08/05 13:07:22;;;;;;;13.23;2.75;;;;;;;;;;4990347;28;20120;-65
2023/08/05 13:10:16;;;;;;;11.43;2.53;;;;;;;;;;4992904;28;20057;-65
2023/08/05 13:13:03;;;;;;;7.22;2.80;;;;;;;;;;4989725;28;20330;-65
2023/08/05 13:15:57;;;;;;;13.40;3.22;;;;;;;;;;4994226;28;20526;-65
2023/08/05 13:18:44;;;;;;;13.77;2.90;;;;;;;;;;4990284;28;20511;-66
2023/08/05 13:21:37;;;;;;;10.98;3.10;;;;;;;;;;4995126;28;20140;-52
2023/08/05 13:24:33;;;;;;;11.70;3.05;;;;;;;;;;4991940;28;20141;-65
2023/08/05 13:27:21;;;;;;;11.38;2.90;;;;;;;;;;4990145;28;20108;-65
2023/08/05 13:30:13;;;;;;;6.60;2.08;;;;;;;;;;4989971;28;20053;-65
2023/08/05 13:33:00;;;;;;;8.57;2.22;;;;;;;;;;4996780;28;20483;-64
2023/08/05 13:35:54;;;;;;;5.97;2.22;;;;;;;;;;4991291;28;20046;-65
2023/08/05 13:38:49;;;;;;;8.80;2.10;;;;;;;;;;4995054;28;20067;-52
2023/08/05 13:41:42;;;;;;;5.90;1.88;;;;;;;;;;4998139;28;20050;-60
2023/08/05 13:44:43;;;;;;;9.20;1.88;;;;;;;;;;4996184;28;20490;-60
2023/08/05 13:47:31;;;;;;;8.80;1.92;;;;;;;;;;4997749;28;20486;-60
2023/08/05 13:50:25;;;;;;;7.95;2.40;;;;;;;;;;4998634;28;20157;-60
2023/08/05 13:53:12;;;;;;;7.32;2.10;;;;;;;;;;4997211;28;20069;-60
2023/08/05 13:56:06;;;;;;;8.55;2.40;;;;;;;;;;4997806;28;20057;-58
2023/08/05 13:58:53;;;;;;;6.60;2.20;;;;;;;;;;4990453;28;20062;-66
2023/08/05 14:01:46;;;;;;;9.85;2.40;;;;;;;;;;4994942;28;20069;-66
2023/08/05 14:04:34;;;;;;;7.65;2.05;;;;;;;;;;4989675;28;20046;-66
2023/08/05 14:07:28;;;;;;;8.50;2.42;;;;;;;;;;4998176;28;20584;-67
2023/08/05 14:10:15;;;;;;;7.80;2.22;;;;;;;;;;4998985;28;20050;-66
2023/08/05 14:13:09;;;;;;;8.13;2.70;;;;;;;;;;4999244;28;20136;-66
2023/08/05 14:15:56;;;;;;;13.98;2.45;;;;;;;;;;4993482;28;20494;-51
2023/08/05 14:18:50;;;;;;;10.80;2.30;;;;;;;;;;4992632;28;20157;-53
2023/08/05 14:21:37;;;;;;;8.00;2.55;;;;;;;;;;4997424;28;20053;-56
2023/08/05 14:24:31;;;;;;;12.75;2.72;;;;;;;;;;4990960;28;20053;-55
2023/08/05 14:27:18;;;;;;;7.78;2.28;;;;;;;;;;4995219;28;20444;-56
2023/08/05 14:30:33;;;;;;;7.03;2.40;;;;;;;;;;4989920;28;20061;-57
2023/08/05 14:33:20;;;;;;;10.48;2.47;;;;;;;;;;4983623;28;20556;-65
2023/08/05 14:36:25;;;;;;;8.48;2.33;;;;;;;;;;4987789;28;20058;-54
2023/08/05 14:39:08;;;;;;;8.95;2.53;;;;;;;;;;4987552;28;20061;-55
2023/08/05 14:42:08;;;;;;;7.43;2.20;;;;;;;;;;4993559;28;20593;-55
2023/08/05 14:44:55;;;;;;;7.63;2.10;;;;;;;;;;4992262;28;20053;-56
2023/08/05 14:47:50;;;;;;;6.68;2.40;;;;;;;;;;4992640;28;20504;-54
2023/08/05 14:50:38;;;;;;;10.27;2.53;;;;;;;;;;4997662;28;20124;-51
2023/08/05 14:53:31;;;;;;;7.07;2.67;;;;;;;;;;4987795;28;20479;-45
2023/08/05 14:56:26;;;;;;;7.85;2.17;;;;;;;;;;4994508;28;20050;-66
2023/08/05 14:59:13;;;;;;;10.50;2.43;;;;;;;;;;4996324;28;20066;-66
2023/08/05 15:02:07;;;;;;;6.28;2.17;;;;;;;;;;4990535;28;20128;-66
2023/08/05 15:04:54;;;;;;;11.23;2.40;;;;;;;;;;4984825;28;20050;-66
2023/08/05 15:07:48;;;;;;;10.23;2.35;;;;;;;;;;4987431;28;20074;-66
2023/08/05 15:10:35;;;;;;;7.35;2.58;;;;;;;;;;5003319;28;20046;-59
2023/08/05 15:13:29;;;;;;;9.32;2.50;;;;;;;;;;4993948;28;20128;-59
2023/08/05 15:16:16;;;;;;;7.07;2.38;;;;;;;;;;4993115;28;20046;-59
2023/08/05 15:19:10;;;;;;;8.45;2.15;;;;;;;;;;4995109;28;20490;-55
2023/08/05 15:21:57;;;;;;;6.68;2.35;;;;;;;;;;4991178;28;20112;-55
2023/08/05 15:24:50;;;;;;;6.97;2.03;;;;;;;;;;4993985;28;20179;-66
2023/08/05 15:27:38;;;;;;;9.48;2.40;;;;;;;;;;4994027;28;20495;-66
2023/08/05 15:30:42;;;;;;;8.20;2.30;;;;;;;;;;4991471;28;20053;-66
2023/08/05 15:33:29;;;;;;;13.45;2.65;;;;;;;;;;4990379;28;20129;-66
2023/08/05 15:36:23;;;;;;;9.55;2.35;;;;;;;;;;4998190;28;20105;-67